Current Weather

Baltimore/Washington Intl Thurgood Marshall

Baltimore, Maryland (KBWI)

Report from: Wednesday, May 29, 2024 4:54 AM EDT
Current time: Wednesday, May 29, 2024 5:10 AM EDT

Nearby weather – Weather history – Daily summaries
Weather forecast

Temperature15.6°C (60.1°F)
Dew point11.7°C (53.1°F)
Winds 3 kts (1.5 m/s, 3.5 mph) West (280°)
Visibility10 mi. (16.1 km)
Clouds Sky clear
Altimeter29.91 in.Hg (1013 mB)
Relative humidity78 %
Density altitude279 ft. (85 m)
Sea-level pressure101.3 kPa (1013 mB, 29.91 in.Hg)
Remarks System requires maintenance
Automated weather observing station with precipitation discriminator
Pressure rising more quickly
Flight conditions Visual Meteorological Conditions
Raw dataKBWI 290854Z 28003KT 10SM CLR 16/12 A2991 RMK AO2 SLP128 T01560117 53002 $
An error has occurred. This application may no longer respond until reloaded. Reload 🗙